Accueil
METAR-TAF:

METAR-TAF

Aéroports :

Berne, Suisse

Aéroport international de Berne

latitude: 46-55N, longitude: 007-30E, altitude: 505 m

Observation

Le bulletin a été fait il y a 23 minutes, à 09:50 UTC
Vent 5 kt de nord/nord-est
Température -1°C
Humidité 80%
Pression 1010 hPa
Visibilité: 6000 m
Ciel couvert à une hauteur de 2000 ft

METAR: LSZB 240950Z 03005KT 6000 OVC020 M01/M04 Q1010 NOSIG

Heure: 11:13 (10:13 UTC)

Prévision

Le bulletin a été fait il y a 1 heure et 48 minutes, à 08:25 UTC
Prévision valable du 24 à 09 UTC au 24 à 18 UTC
Vent 5 kt de nord-est
Visibilité: 6000 m
Nuages fragmentés à une hauteur de 1900 ft

TAF: LSZB 240825Z 2409/2418 05005KT 6000 BKN019

Observations et prévisions météorologiques de plus de 4000 aéroports (messages METAR et TAF).

Les stations disponibles sont représentées par des disques jaunes et rouges sur la carte.

Passer la souris dessus pour voir le nom de la station.

Cliquer dessus pour voir les observations et prévisions météorologiques.

Pour changer de carte: cliquez sur les boutons verts avec une croix noire pour zoomer, sur le bouton vert avec un tiret pour effectuer un zoom arrière, ou sur les flèches vertes pour les cartes adjacentes.


METAR-TAF: